Faneromeni — SVKG — position and weather

sailwx.info

Track history (hours):
 
Tides and Currents Weather Stations Pressure Air Temp Water Temp Dewpoint Dewpoint Depression Visibility Wind Speed Wind Dir Waves Ship Positions

Faneromeni

Last reported at 2017-Mar-08 09:15 UTC. Time now 2017-Mar-23 20:13 UTC.
Position N 35°16' W 023°37'.
Warning: this ship's position is 15 days out of date.

Length 230 m; draft 9.2 m.

Type: Ship. MMSI: 240576000.

Date/timePositionNaut miles runAvg speedWind from/ knotsBaromVisibWave heightAir tempDewpointWater temp
2017-Mar-08 09:15N 35°16' W 023°37'7 9.0
2017-Mar-08 08:30N 35°22' W 023°34'20 9.0
2017-Mar-08 06:18N 35°40' W 023°26'8 8.9
2017-Mar-08 05:26N 35°48' W 023°23'11 9.0
2017-Mar-08 04:12N 35°58' W 023°18'25 9.0
2017-Mar-08 01:29N 36°21' W 023°08'8 8.9
2017-Mar-08 00:33N 36°29' W 023°04'9 8.8
2017-Mar-07 23:33N 36°37' W 023°01'9 9.1
2017-Mar-07 22:32N 36°46' W 022°57'9 9.1
2017-Mar-07 21:33N 36°54' W 022°53'10 8.9
2017-Mar-07 20:24N 37°04' W 022°49'8 9.0
2017-Mar-07 19:29N 37°12' W 022°45'9 9.2
2017-Mar-07 18:34N 37°20' W 022°41'9 9.0
2017-Mar-07 17:32N 37°28' W 022°37'8 8.5
2017-Mar-07 16:33N 37°35' W 022°32'9 8.8
2017-Mar-07 15:33N 37°41' W 022°23'9 8.8
2017-Mar-07 14:34N 37°46' W 022°14'9 8.7
2017-Mar-07 13:32N 37°51' W 022°05'9 8.8
2017-Mar-07 12:33N 37°56' W 021°56'9 8.8
2017-Mar-07 11:32N 38°01' W 021°46'27 9.0
2017-Mar-07 08:33N 38°17' W 021°19'9 9.0
2017-Mar-07 07:30N 38°23' W 021°09'  
2017-Mar-02 12:21N 49°44' W 003°32'7 9.0
2017-Mar-02 11:33N 49°48' W 003°22'11 9.1
2017-Mar-02 10:22N 49°53' W 003°07'6 7.9
2017-Mar-02 09:33N 49°56' W 002°58'7 6.9
2017-Mar-02 08:33N 49°59' W 002°49'7 6.5
2017-Mar-02 07:30N 50°01' W 002°39'19 8.1
2017-Mar-02 05:07N 50°07' W 002°10'610.6
2017-Mar-02 04:33N 50°08' W 002°01'1110.8
2017-Mar-02 03:33N 50°11' W 001°45'1010.3
2017-Mar-02 02:33N 50°14' W 001°29'9 9.1
2017-Mar-02 01:34N 50°16' W 001°15'7 7.1
2017-Mar-02 00:33N 50°18' W 001°05'6 5.5
2017-Mar-01 23:32N 50°20' W 000°56'20 4.6
2017-Mar-01 19:19N 50°25' W 000°27'7 9.2
2017-Mar-01 18:33N 50°27' W 000°16'10 9.8
2017-Mar-01 17:33N 50°30' W 000°02'1110.7
2017-Mar-01 16:32N 50°33' E 000°15'1010.6
2017-Mar-01 15:33N 50°36' E 000°30'10 9.8
2017-Mar-01 14:33N 50°41' E 000°44'9 8.4
2017-Mar-01 13:33N 50°45' E 000°55'7 7.4
2017-Mar-01 12:33N 50°49' E 001°05'7 7.3
2017-Mar-01 11:33N 50°54' E 001°15'8 8.0
2017-Mar-01 10:33N 50°59' E 001°24'10 9.7
2017-Mar-01 09:33N 51°06' E 001°34'1010.4
2017-Mar-01 08:33N 51°14' E 001°45'1010.0
2017-Mar-01 07:33N 51°22' E 001°54'10 9.7
2017-Mar-01 06:33N 51°30' E 002°04'9 8.7
2017-Mar-01 05:33N 51°36' E 002°13'8 7.2
2017-Mar-01 04:24N 51°42' E 002°22'52 7.5
2017-Feb-28 21:31N 52°02' E 003°40'9 9.4
2017-Feb-28 20:33N 52°02' E 003°54'8 8.2
2017-Feb-28 19:33N 51°57' E 004°05'2 1.7
2017-Feb-28 18:33N 51°56' E 004°03'0 0.1
2017-Feb-28 17:32N 51°56' E 004°03'0 0.0
2017-Feb-28 16:33N 51°56' E 004°03'0 0.0
2017-Feb-28 15:33N 51°56' E 004°03'0 0.0
2017-Feb-28 14:33N 51°56' E 004°03'0 0.0
2017-Feb-28 13:32N 51°56' E 004°03'0 0.0
2017-Feb-28 12:33N 51°56' E 004°03'0 0.0
2017-Feb-28 11:33N 51°56' E 004°03'0 0.0
2017-Feb-28 10:33N 51°56' E 004°03'0 0.0
2017-Feb-28 09:32N 51°56' E 004°03'0 0.0
2017-Feb-28 08:33N 51°56' E 004°03'0 0.0
2017-Feb-28 07:33N 51°56' E 004°03'0 0.0
2017-Feb-28 06:33N 51°56' E 004°03'0 0.0
2017-Feb-28 05:32N 51°56' E 004°03'0 0.0
2017-Feb-28 04:33N 51°56' E 004°03'0 0.0
2017-Feb-28 03:32N 51°56' E 004°03'0 0.0
2017-Feb-28 02:33N 51°56' E 004°03'0 0.0
2017-Feb-28 01:32N 51°56' E 004°03'0 0.0
2017-Feb-28 00:32N 51°56' E 004°03'0 0.0
2017-Feb-27 23:33N 51°56' E 004°03'0 0.0
2017-Feb-27 22:32N 51°56' E 004°03'0 0.0
2017-Feb-27 21:33N 51°56' E 004°03'0 0.0
2017-Feb-27 20:33N 51°56' E 004°03'0 0.0
2017-Feb-27 19:32N 51°56' E 004°03'0 0.0
2017-Feb-27 18:33N 51°56' E 004°03'0 0.0
2017-Feb-27 17:33N 51°56' E 004°03'0 0.0
2017-Feb-27 16:33N 51°56' E 004°03'0 0.0
2017-Feb-27 15:29N 51°56' E 004°03'0 0.0
2017-Feb-27 14:33N 51°56' E 004°03'0 0.0
2017-Feb-27 13:33N 51°56' E 004°03'0 0.0
2017-Feb-27 12:33N 51°56' E 004°03'0 0.0
2017-Feb-27 11:33N 51°56' E 004°03'0 0.0
2017-Feb-27 10:32N 51°56' E 004°03'0 0.0
2017-Feb-27 09:33N 51°56' E 004°03'0 0.0
2017-Feb-27 08:32N 51°56' E 004°03'0 0.0
2017-Feb-27 07:33N 51°56' E 004°03'0 0.0
2017-Feb-27 06:33N 51°56' E 004°03'0 0.0
2017-Feb-27 05:33N 51°56' E 004°03'0 0.0
2017-Feb-27 04:33N 51°56' E 004°03'0 0.0
2017-Feb-27 03:33N 51°56' E 004°03'0 0.0
2017-Feb-27 02:33N 51°56' E 004°03'0 0.0
2017-Feb-27 01:33N 51°56' E 004°03'0 0.0
2017-Feb-27 00:33N 51°56' E 004°03'0 0.0
2017-Feb-26 23:33N 51°56' E 004°03'0 0.0
2017-Feb-26 22:33N 51°56' E 004°03'0 0.0
2017-Feb-26 21:33N 51°56' E 004°03'0 0.0
2017-Feb-26 20:32N 51°56' E 004°03'0 0.0
2017-Feb-26 19:33N 51°56' E 004°03'0 0.0
2017-Feb-26 18:33N 51°56' E 004°03'0 0.0
2017-Feb-26 17:33N 51°56' E 004°03'0 0.0
2017-Feb-26 16:32N 51°56' E 004°03'0 0.0
2017-Feb-26 15:33N 51°56' E 004°03'0 0.0
2017-Feb-26 14:30N 51°56' E 004°03'0 0.0
2017-Feb-26 13:33N 51°56' E 004°03'0 0.0
2017-Feb-26 12:33N 51°56' E 004°03'0 0.0
2017-Feb-26 11:33N 51°56' E 004°03'0 0.0
2017-Feb-26 10:32N 51°56' E 004°03'0 0.0
2017-Feb-26 09:33N 51°56' E 004°03'  
Track history (hours):
 
Tides and Currents Weather Stations Pressure Air Temp Water Temp Dewpoint Dewpoint Depression Visibility Wind Speed Wind Dir Waves Ship Positions

Faneromeni

Last reported at 2017-Mar-08 09:15 UTC. Time now 2017-Mar-23 20:13 UTC.
Position N 35°16' W 023°37'.
Warning: this ship's position is 15 days out of date.

Length 230 m; draft 9.2 m.

Type: Ship. MMSI: 240576000.

Date/timePositionNaut miles runAvg speedWind from/ knotsBaromVisibWave heightAir tempDewpointWater temp
2017-Mar-08 09:15N 35°16' W 023°37'7 9.0
2017-Mar-08 08:30N 35°22' W 023°34'20 9.0
2017-Mar-08 06:18N 35°40' W 023°26'8 8.9
2017-Mar-08 05:26N 35°48' W 023°23'11 9.0
2017-Mar-08 04:12N 35°58' W 023°18'25 9.0
2017-Mar-08 01:29N 36°21' W 023°08'8 8.9
2017-Mar-08 00:33N 36°29' W 023°04'9 8.8
2017-Mar-07 23:33N 36°37' W 023°01'9 9.1
2017-Mar-07 22:32N 36°46' W 022°57'9 9.1
2017-Mar-07 21:33N 36°54' W 022°53'10 8.9
2017-Mar-07 20:24N 37°04' W 022°49'8 9.0
2017-Mar-07 19:29N 37°12' W 022°45'9 9.2
2017-Mar-07 18:34N 37°20' W 022°41'9 9.0
2017-Mar-07 17:32N 37°28' W 022°37'8 8.5
2017-Mar-07 16:33N 37°35' W 022°32'9 8.8
2017-Mar-07 15:33N 37°41' W 022°23'9 8.8
2017-Mar-07 14:34N 37°46' W 022°14'9 8.7
2017-Mar-07 13:32N 37°51' W 022°05'9 8.8
2017-Mar-07 12:33N 37°56' W 021°56'9 8.8
2017-Mar-07 11:32N 38°01' W 021°46'27 9.0
2017-Mar-07 08:33N 38°17' W 021°19'9 9.0
2017-Mar-07 07:30N 38°23' W 021°09'  
2017-Mar-02 12:21N 49°44' W 003°32'7 9.0
2017-Mar-02 11:33N 49°48' W 003°22'11 9.1
2017-Mar-02 10:22N 49°53' W 003°07'6 7.9
2017-Mar-02 09:33N 49°56' W 002°58'7 6.9
2017-Mar-02 08:33N 49°59' W 002°49'7 6.5
2017-Mar-02 07:30N 50°01' W 002°39'19 8.1
2017-Mar-02 05:07N 50°07' W 002°10'610.6
2017-Mar-02 04:33N 50°08' W 002°01'1110.8
2017-Mar-02 03:33N 50°11' W 001°45'1010.3
2017-Mar-02 02:33N 50°14' W 001°29'9 9.1
2017-Mar-02 01:34N 50°16' W 001°15'7 7.1
2017-Mar-02 00:33N 50°18' W 001°05'6 5.5
2017-Mar-01 23:32N 50°20' W 000°56'20 4.6
2017-Mar-01 19:19N 50°25' W 000°27'7 9.2
2017-Mar-01 18:33N 50°27' W 000°16'10 9.8
2017-Mar-01 17:33N 50°30' W 000°02'1110.7
2017-Mar-01 16:32N 50°33' E 000°15'1010.6
2017-Mar-01 15:33N 50°36' E 000°30'10 9.8
2017-Mar-01 14:33N 50°41' E 000°44'9 8.4
2017-Mar-01 13:33N 50°45' E 000°55'7 7.4
2017-Mar-01 12:33N 50°49' E 001°05'7 7.3
2017-Mar-01 11:33N 50°54' E 001°15'8 8.0
2017-Mar-01 10:33N 50°59' E 001°24'10 9.7
2017-Mar-01 09:33N 51°06' E 001°34'1010.4
2017-Mar-01 08:33N 51°14' E 001°45'1010.0
2017-Mar-01 07:33N 51°22' E 001°54'10 9.7
2017-Mar-01 06:33N 51°30' E 002°04'9 8.7
2017-Mar-01 05:33N 51°36' E 002°13'8 7.2
2017-Mar-01 04:24N 51°42' E 002°22'52 7.5
2017-Feb-28 21:31N 52°02' E 003°40'9 9.4
2017-Feb-28 20:33N 52°02' E 003°54'8 8.2
2017-Feb-28 19:33N 51°57' E 004°05'2 1.7
2017-Feb-28 18:33N 51°56' E 004°03'0 0.1
2017-Feb-28 17:32N 51°56' E 004°03'0 0.0
2017-Feb-28 16:33N 51°56' E 004°03'0 0.0
2017-Feb-28 15:33N 51°56' E 004°03'0 0.0
2017-Feb-28 14:33N 51°56' E 004°03'0 0.0
2017-Feb-28 13:32N 51°56' E 004°03'0 0.0
2017-Feb-28 12:33N 51°56' E 004°03'0 0.0
2017-Feb-28 11:33N 51°56' E 004°03'0 0.0
2017-Feb-28 10:33N 51°56' E 004°03'0 0.0
2017-Feb-28 09:32N 51°56' E 004°03'0 0.0
2017-Feb-28 08:33N 51°56' E 004°03'0 0.0
2017-Feb-28 07:33N 51°56' E 004°03'0 0.0
2017-Feb-28 06:33N 51°56' E 004°03'0 0.0
2017-Feb-28 05:32N 51°56' E 004°03'0 0.0
2017-Feb-28 04:33N 51°56' E 004°03'0 0.0
2017-Feb-28 03:32N 51°56' E 004°03'0 0.0
2017-Feb-28 02:33N 51°56' E 004°03'0 0.0
2017-Feb-28 01:32N 51°56' E 004°03'0 0.0
2017-Feb-28 00:32N 51°56' E 004°03'0 0.0
2017-Feb-27 23:33N 51°56' E 004°03'0 0.0
2017-Feb-27 22:32N 51°56' E 004°03'0 0.0
2017-Feb-27 21:33N 51°56' E 004°03'0 0.0
2017-Feb-27 20:33N 51°56' E 004°03'0 0.0
2017-Feb-27 19:32N 51°56' E 004°03'0 0.0
2017-Feb-27 18:33N 51°56' E 004°03'0 0.0
2017-Feb-27 17:33N 51°56' E 004°03'0 0.0
2017-Feb-27 16:33N 51°56' E 004°03'0 0.0
2017-Feb-27 15:29N 51°56' E 004°03'0 0.0
2017-Feb-27 14:33N 51°56' E 004°03'0 0.0
2017-Feb-27 13:33N 51°56' E 004°03'0 0.0
2017-Feb-27 12:33N 51°56' E 004°03'0 0.0
2017-Feb-27 11:33N 51°56' E 004°03'0 0.0
2017-Feb-27 10:32N 51°56' E 004°03'0 0.0
2017-Feb-27 09:33N 51°56' E 004°03'0 0.0
2017-Feb-27 08:32N 51°56' E 004°03'0 0.0
2017-Feb-27 07:33N 51°56' E 004°03'0 0.0
2017-Feb-27 06:33N 51°56' E 004°03'0 0.0
2017-Feb-27 05:33N 51°56' E 004°03'0 0.0
2017-Feb-27 04:33N 51°56' E 004°03'0 0.0
2017-Feb-27 03:33N 51°56' E 004°03'0 0.0
2017-Feb-27 02:33N 51°56' E 004°03'0 0.0
2017-Feb-27 01:33N 51°56' E 004°03'0 0.0
2017-Feb-27 00:33N 51°56' E 004°03'0 0.0
2017-Feb-26 23:33N 51°56' E 004°03'0 0.0
2017-Feb-26 22:33N 51°56' E 004°03'0 0.0
2017-Feb-26 21:33N 51°56' E 004°03'0 0.0
2017-Feb-26 20:32N 51°56' E 004°03'0 0.0
2017-Feb-26 19:33N 51°56' E 004°03'0 0.0
2017-Feb-26 18:33N 51°56' E 004°03'0 0.0
2017-Feb-26 17:33N 51°56' E 004°03'0 0.0
2017-Feb-26 16:32N 51°56' E 004°03'0 0.0
2017-Feb-26 15:33N 51°56' E 004°03'0 0.0
2017-Feb-26 14:30N 51°56' E 004°03'0 0.0
2017-Feb-26 13:33N 51°56' E 004°03'0 0.0
2017-Feb-26 12:33N 51°56' E 004°03'0 0.0
2017-Feb-26 11:33N 51°56' E 004°03'0 0.0
2017-Feb-26 10:32N 51°56' E 004°03'0 0.0
2017-Feb-26 09:33N 51°56' E 004°03'  

Dump ship's entire track history